createdAt,value
2018-08-23T03:10:01.432Z,0.1
2018-08-23T03:12:01.062Z,0.2
2018-08-23T03:13:06.091Z,0.3
2018-08-23T03:15:01.229Z,0.4
2018-08-23T03:16:01.096Z,0.5
2018-08-23T03:18:06.065Z,0.7
2018-08-23T03:19:01.098Z,0.8
2018-08-23T03:20:01.204Z,0.9
2018-08-23T03:21:01.095Z,1.1
2018-08-23T03:22:01.066Z,1.3
2018-08-23T03:23:06.100Z,1.5
2018-08-23T03:24:01.097Z,1.7
2018-08-23T03:25:01.201Z,1.9
2018-08-23T03:26:01.070Z,2.2
2018-08-23T03:27:01.097Z,2.5
2018-08-23T03:28:01.119Z,2.9
2018-08-23T03:29:01.065Z,3.4
2018-08-23T03:30:01.234Z,4.0
2018-08-23T03:31:01.096Z,4.7
2018-08-23T03:33:06.085Z,5.6
2018-08-23T03:34:01.082Z,6.6
2018-08-23T03:35:01.222Z,7.7
2018-08-23T03:36:01.052Z,9.0
2018-08-23T03:37:06.049Z,10.4
2018-08-23T03:38:01.085Z,12.1
2018-08-23T03:39:01.111Z,13.9
2018-08-23T03:40:01.291Z,15.9
2018-08-23T03:41:01.058Z,18.1
2018-08-23T03:42:01.103Z,20.6
2018-08-23T03:43:01.051Z,23.2
2018-08-23T03:44:01.051Z,26.0
2018-08-23T03:45:01.410Z,29.3
2018-08-23T03:46:01.088Z,33.2
2018-08-23T03:47:01.074Z,37.5
2018-08-23T03:48:01.082Z,42.1
2018-08-23T03:49:01.088Z,47.2
2018-08-23T03:50:01.227Z,52.9
2018-08-23T03:51:01.085Z,59.3
2018-08-23T03:52:06.081Z,66.6
2018-08-23T03:53:01.083Z,74.9
2018-08-23T03:54:01.086Z,84.1
2018-08-23T03:55:01.347Z,95.1
2018-08-23T03:56:01.057Z,107.0
2018-08-23T03:57:01.084Z,119.7
2018-08-23T03:58:01.097Z,134.1
2018-08-23T03:59:01.083Z,150.1
2018-08-23T04:00:01.235Z,166.7
2018-08-23T04:01:01.052Z,184.6
2018-08-23T04:02:01.083Z,204.8
2018-08-23T04:03:01.092Z,227.9
2018-08-23T04:04:01.096Z,252.5
2018-08-23T04:05:01.225Z,279.8
2018-08-23T04:06:01.089Z,312.5
2018-08-23T04:07:01.055Z,348.9
2018-08-23T04:08:01.065Z,386.6
2018-08-23T04:09:01.055Z,425.5
2018-08-23T04:10:01.270Z,465.7
2018-08-23T04:11:01.087Z,508.9
2018-08-23T04:12:01.152Z,555.9
2018-08-23T04:13:01.063Z,605.8
2018-08-23T04:14:01.087Z,656.8
2018-08-23T04:15:01.226Z,709.6
2018-08-23T04:16:01.089Z,767.3
2018-08-23T04:17:01.089Z,831.1
2018-08-23T04:18:01.089Z,899.9
2018-08-23T04:19:01.087Z,973.5
2018-08-23T04:20:01.230Z,1050.5
2018-08-23T04:21:01.057Z,1133.3
2018-08-23T04:22:01.061Z,1230.7
2018-08-23T04:23:01.191Z,1337.1
2018-08-23T04:24:01.057Z,1453.9
2018-08-23T04:25:01.234Z,1585.7
2018-08-23T04:26:01.060Z,1723.7
2018-08-23T04:27:01.065Z,1859.5
2018-08-23T04:28:01.109Z,1995.8
2018-08-23T04:29:01.097Z,2142.1
2018-08-23T04:30:01.207Z,2300.1
2018-08-23T04:31:01.060Z,2468.2
2018-08-23T04:32:01.094Z,2637.6
2018-08-23T04:33:01.067Z,2804.9
2018-08-23T04:34:01.098Z,2975.2
2018-08-23T04:35:01.299Z,3144.7
2018-08-23T04:36:01.092Z,3316.1
2018-08-23T04:37:01.068Z,3471.5
2018-08-23T04:38:01.061Z,3620.5
2018-08-23T04:39:01.060Z,3765.1
2018-08-23T04:40:01.237Z,3901.3
2018-08-23T04:41:01.100Z,4043.9
2018-08-23T04:42:01.101Z,4175.7
2018-08-23T04:43:01.100Z,4300.3
2018-08-23T04:44:01.063Z,4408.3
2018-08-23T04:45:01.209Z,4518.1
2018-08-23T04:46:01.100Z,4654.7
2018-08-23T04:47:01.106Z,4800.0
2018-08-23T04:49:01.145Z,4942.8
2018-08-23T04:50:01.260Z,5097.1
2018-08-23T04:51:01.094Z,5265.1
2018-08-23T04:52:01.083Z,5433.1
2018-08-23T04:53:01.089Z,5612.3
2018-08-23T04:54:01.056Z,5788.7
2018-08-23T04:55:01.230Z,5976.9
2018-08-23T04:56:01.086Z,6180.7
2018-08-23T04:57:01.056Z,6396.0
2018-08-23T04:58:01.086Z,6649.9
2018-08-23T04:59:01.088Z,6911.7
2018-08-23T05:00:01.287Z,7183.1
2018-08-23T05:01:01.078Z,7451.0
2018-08-23T05:02:01.060Z,7699.8
2018-08-23T05:03:01.085Z,7956.7
2018-08-23T05:04:01.160Z,8227.6
2018-08-23T05:05:01.230Z,8497.4
2018-08-23T05:06:01.058Z,8753.3
2018-08-23T05:07:01.091Z,9020.3
2018-08-23T05:08:01.058Z,9294.1
2018-08-23T05:09:06.057Z,9582.4
2018-08-23T05:10:01.238Z,9872.9
2018-08-23T05:11:01.055Z,10189.2
2018-08-23T05:12:06.057Z,10488.7
2018-08-23T05:13:01.092Z,10779.5
2018-08-23T05:14:01.167Z,11118.9
2018-08-23T05:15:01.201Z,11450.1
2018-08-23T05:16:01.091Z,11737.7
2018-08-23T05:17:06.062Z,12005.2
2018-08-23T05:18:01.093Z,12247.7
2018-08-23T05:19:01.090Z,12483.5
2018-08-23T05:20:01.233Z,12772.1
2018-08-23T05:21:01.089Z,13034.2
2018-08-23T05:22:06.062Z,13245.9
2018-08-23T05:23:01.129Z,13441.5
2018-08-23T05:24:01.063Z,13654.5
2018-08-23T05:25:02.968Z,13827.8
2018-08-23T05:26:01.064Z,13919.7
2018-08-23T05:27:01.121Z,13978.1
2018-08-23T05:28:01.099Z,14010.2
2018-08-23T05:29:01.094Z,13997.5
2018-08-23T05:30:01.233Z,14053.3
2018-08-23T05:31:01.064Z,14162.9
2018-08-23T05:32:06.099Z,14267.3
2018-08-23T05:33:01.094Z,14353.7
2018-08-23T05:34:01.100Z,14434.7
2018-08-23T05:35:01.276Z,14517.7
2018-08-23T05:36:01.095Z,14621.5
2018-08-23T05:37:01.124Z,14728.3
2018-08-23T05:38:01.070Z,14934.1
2018-08-23T05:39:01.101Z,15154.3
2018-08-23T05:40:01.203Z,15344.8
2018-08-23T05:41:01.080Z,15519.0
2018-08-23T05:42:06.098Z,15718.1
2018-08-23T05:43:01.063Z,15982.7
2018-08-23T05:44:01.069Z,16337.5
2018-08-23T05:45:01.243Z,16682.5
2018-08-23T05:46:01.065Z,16973.6
2018-08-23T05:48:01.083Z,17311.1
2018-08-23T05:49:01.068Z,17745.9
2018-08-23T05:50:01.235Z,18240.5
2018-08-23T05:51:01.084Z,18702.3
2018-08-23T05:52:01.110Z,19271.9
2018-08-23T05:53:01.084Z,20175.5
2018-08-23T05:54:01.062Z,21230.2
2018-08-23T05:55:01.238Z,22343.0
2018-08-23T05:56:01.085Z,23696.1
2018-08-23T05:57:01.114Z,25275.6
2018-08-23T05:58:01.088Z,26993.9
2018-08-23T05:59:01.094Z,28912.3
2018-08-23T06:00:01.226Z,30946.1
2018-08-23T06:01:01.057Z,32871.9
2018-08-23T06:02:01.113Z,34685.1
2018-08-23T06:03:01.091Z,36378.0
2018-08-23T06:04:01.097Z,38116.8
2018-08-23T06:05:01.206Z,40011.3
2018-08-23T06:06:01.090Z,42013.7
2018-08-23T06:07:01.092Z,44075.1
2018-08-23T06:08:01.095Z,45964.0
2018-08-23T06:09:01.088Z,47641.5
2018-08-23T06:10:01.229Z,49279.1
2018-08-23T06:11:01.063Z,50823.3
2018-08-23T06:12:01.099Z,52208.6
2018-08-23T06:13:01.091Z,53402.1
2018-08-23T06:14:01.071Z,54304.6
2018-08-23T06:15:01.234Z,54973.0
2018-08-23T06:16:01.069Z,55698.6
2018-08-23T06:17:01.057Z,56435.7
2018-08-23T06:18:01.066Z,57234.4
2018-08-23T06:19:01.093Z,57976.9
2018-08-23T06:20:01.320Z,58637.7
2018-08-23T06:21:01.102Z,59472.0
2018-08-23T06:22:01.092Z,60139.3
2018-08-23T06:23:01.093Z,60667.6
2018-08-23T06:24:01.067Z,61151.9
2018-08-23T06:25:01.238Z,61569.4
2018-08-23T06:26:01.102Z,61887.0
2018-08-23T06:27:01.120Z,62183.7
2018-08-23T06:28:01.127Z,62530.4
2018-08-23T06:29:01.101Z,62906.9
2018-08-23T06:30:01.232Z,63302.1
2018-08-23T06:31:01.068Z,63691.8
2018-08-23T06:32:01.091Z,64213.3
2018-08-23T06:33:01.185Z,64747.7
2018-08-23T06:34:01.146Z,65210.9
2018-08-23T06:35:01.238Z,65535.0
2018-08-23T06:45:01.206Z,65535.0
2018-08-23T07:00:01.371Z,65535.0
2018-08-23T07:15:01.240Z,65535.0
2018-08-23T07:30:01.415Z,65535.0
2018-08-23T07:45:01.214Z,65535.0
2018-08-23T08:00:01.216Z,65535.0
2018-08-23T08:15:01.358Z,65535.0
2018-08-23T08:30:01.238Z,65535.0
2018-08-23T08:45:01.426Z,65535.0
2018-08-23T09:00:01.390Z,65535.0
2018-08-23T09:15:01.256Z,65535.0
2018-08-23T09:30:01.160Z,65535.0
2018-08-23T09:45:01.067Z,65535.0
2018-08-23T10:00:01.144Z,65535.0
2018-08-23T10:15:01.084Z,65535.0
2018-08-23T10:30:01.155Z,65535.0
2018-08-23T10:45:01.098Z,65535.0
2018-08-23T11:00:01.094Z,65535.0
2018-08-23T11:15:01.079Z,65535.0
2018-08-23T11:30:01.232Z,65535.0
2018-08-23T11:45:01.150Z,65535.0
2018-08-23T12:00:01.152Z,65535.0
2018-08-23T12:15:01.132Z,65535.0
2018-08-23T12:30:01.359Z,65535.0
2018-08-23T12:45:01.157Z,65535.0
2018-08-23T13:00:01.365Z,65535.0
2018-08-23T13:15:01.360Z,65535.0
2018-08-23T13:30:01.403Z,65535.0
2018-08-23T13:45:01.075Z,65535.0
2018-08-23T14:00:01.085Z,65535.0
2018-08-23T14:15:01.080Z,65535.0
2018-08-23T14:30:01.093Z,65535.0
2018-08-23T14:45:01.303Z,65535.0
2018-08-23T15:00:01.097Z,65535.0
2018-08-23T15:15:01.064Z,65535.0
2018-08-23T15:30:01.165Z,65535.0
2018-08-23T15:43:01.320Z,64998.9
2018-08-23T15:44:01.090Z,64188.5
2018-08-23T15:45:01.052Z,63269.5
2018-08-23T15:46:06.097Z,62831.2
2018-08-23T15:58:01.475Z,63112.1
2018-08-23T15:59:01.059Z,63460.8
2018-08-23T16:00:01.155Z,63725.1
2018-08-23T16:01:06.097Z,63325.0
2018-08-23T16:02:01.056Z,62305.0
2018-08-23T16:03:01.298Z,61138.4
2018-08-23T16:04:01.064Z,60178.9
2018-08-23T16:05:01.088Z,59941.5
2018-08-23T16:06:06.093Z,59805.9
2018-08-23T16:07:01.060Z,59276.1
2018-08-23T16:08:01.291Z,58715.2
2018-08-23T16:09:01.087Z,58240.2
2018-08-23T16:13:01.293Z,58495.4
2018-08-23T16:14:01.070Z,58957.1
2018-08-23T16:15:01.098Z,59611.8
2018-08-23T16:16:01.129Z,60143.5
2018-08-23T16:17:01.065Z,60556.9
2018-08-23T16:18:01.202Z,60853.5
2018-08-23T16:19:01.070Z,60916.1
2018-08-23T16:20:01.091Z,60547.1
2018-08-23T16:21:06.102Z,60238.5
2018-08-23T16:23:01.221Z,60768.4
2018-08-23T16:24:01.046Z,61329.3
2018-08-23T16:25:01.190Z,61804.3
2018-08-23T16:30:01.411Z,61804.3
2018-08-23T16:32:01.220Z,62111.0
2018-08-23T16:33:01.082Z,62717.6
2018-08-23T16:34:01.085Z,63587.5
2018-08-23T16:35:01.307Z,64484.5
2018-08-23T16:36:01.111Z,65090.9
2018-08-23T16:37:01.054Z,65535.0
2018-08-23T16:45:01.254Z,65535.0
2018-08-23T16:48:01.094Z,65382.5
2018-08-23T16:49:01.085Z,65107.3
2018-08-23T16:50:01.354Z,64891.3
2018-08-23T16:51:01.089Z,64500.5
2018-08-23T16:52:01.079Z,64041.7
2018-08-23T16:53:01.113Z,63467.0
2018-08-23T16:54:01.056Z,62898.6
2018-08-23T16:55:01.263Z,62390.0
2018-08-23T16:56:01.086Z,62143.7
2018-08-23T17:00:01.318Z,61854.6
2018-08-23T17:01:01.064Z,61406.8
2018-08-23T17:02:01.114Z,60781.1
2018-08-23T17:03:01.088Z,60280.9
2018-08-23T17:04:01.068Z,60026.5
2018-08-23T17:05:01.298Z,59885.6
2018-08-23T17:06:01.097Z,60086.7
2018-08-23T17:07:06.090Z,60517.7
2018-08-23T17:08:01.058Z,61092.4
2018-08-23T17:09:01.090Z,61660.8
2018-08-23T17:10:01.315Z,62098.3
2018-08-23T17:11:01.062Z,62117.8
2018-08-23T17:12:01.130Z,61700.5
2018-08-23T17:13:01.101Z,60904.0
2018-08-23T17:14:01.088Z,59705.9
2018-08-23T17:15:01.360Z,58547.3
2018-08-23T17:16:01.157Z,57408.4
2018-08-23T17:17:01.127Z,56483.7
2018-08-23T17:18:01.125Z,55673.2
2018-08-23T17:19:01.062Z,54654.5
2018-08-23T17:20:01.270Z,53250.9
2018-08-23T17:21:01.064Z,51539.1
2018-08-23T17:22:01.146Z,49539.7
2018-08-23T17:23:01.078Z,47407.5
2018-08-23T17:24:01.063Z,45126.8
2018-08-23T17:25:03.237Z,42823.7
2018-08-23T17:26:01.060Z,40744.7
2018-08-23T17:27:01.121Z,38963.4
2018-08-23T17:28:01.096Z,37599.1
2018-08-23T17:29:01.094Z,36620.0
2018-08-23T17:30:01.300Z,35844.5
2018-08-23T17:31:01.097Z,35225.1
2018-08-23T17:32:06.095Z,34546.5
2018-08-23T17:33:01.096Z,33689.5
2018-08-23T17:34:01.104Z,32831.3
2018-08-23T17:35:01.242Z,32120.1
2018-08-23T17:37:01.118Z,31311.8
2018-08-23T17:38:01.055Z,30568.0
2018-08-23T17:39:01.084Z,29880.1
2018-08-23T17:40:01.089Z,29279.1
2018-08-23T17:41:01.290Z,28723.4
2018-08-23T17:42:01.124Z,28085.3
2018-08-23T17:43:01.091Z,27327.3
2018-08-23T17:44:01.081Z,26543.2
2018-08-23T17:45:01.088Z,25854.9
2018-08-23T17:46:01.295Z,25250.8
2018-08-23T17:47:01.126Z,24529.3
2018-08-23T17:48:01.060Z,23705.3
2018-08-23T17:49:01.053Z,22920.1
2018-08-23T17:50:01.097Z,22178.0
2018-08-23T17:51:01.321Z,21536.0
2018-08-23T17:52:01.122Z,21138.5
2018-08-23T17:53:01.090Z,20834.0
2018-08-23T17:54:01.084Z,20562.2
2018-08-23T17:55:01.058Z,20332.9
2018-08-23T17:56:01.287Z,20098.7
2018-08-23T17:57:01.115Z,19795.7
2018-08-23T17:58:01.095Z,19435.3
2018-08-23T17:59:01.087Z,19001.3
2018-08-23T18:00:01.061Z,18457.5
2018-08-23T18:01:01.259Z,17860.2
2018-08-23T18:02:01.123Z,17302.6
2018-08-23T18:03:01.058Z,16786.5
2018-08-23T18:04:01.061Z,16261.5
2018-08-23T18:05:01.063Z,15750.2
2018-08-23T18:06:01.291Z,15167.7
2018-08-23T18:07:01.057Z,14517.9
2018-08-23T18:08:01.069Z,13789.1
2018-08-23T18:09:01.096Z,13047.1
2018-08-23T18:10:01.092Z,12313.1
2018-08-23T18:11:01.200Z,11603.5
2018-08-23T18:12:01.249Z,10931.3
2018-08-23T18:13:01.150Z,10292.7
2018-08-23T18:14:01.093Z,9714.2
2018-08-23T18:15:01.097Z,9176.9
2018-08-23T18:16:01.296Z,8626.0
2018-08-23T18:17:01.086Z,8096.3
2018-08-23T18:18:01.064Z,7608.0
2018-08-23T18:19:01.062Z,7129.4
2018-08-23T18:20:01.096Z,6624.9
2018-08-23T18:21:01.271Z,6108.5
2018-08-23T18:22:01.092Z,5615.2
2018-08-23T18:23:01.157Z,5149.6
2018-08-23T18:24:01.096Z,4702.5
2018-08-23T18:25:01.097Z,4268.0
2018-08-23T18:26:01.273Z,3882.4
2018-08-23T18:27:06.134Z,3548.9
2018-08-23T18:28:01.065Z,3239.3
2018-08-23T18:30:01.143Z,2900.7
2018-08-23T18:31:01.287Z,2535.5
2018-08-23T18:32:01.104Z,2192.7
2018-08-23T18:33:01.087Z,1893.1
2018-08-23T18:34:01.084Z,1647.5
2018-08-23T18:35:01.054Z,1465.2
2018-08-23T18:36:01.287Z,1334.1
2018-08-23T18:37:01.129Z,1236.5
2018-08-23T18:38:01.149Z,1163.1
2018-08-23T18:39:01.056Z,1100.5
2018-08-23T18:40:01.145Z,1046.3
2018-08-23T18:41:01.249Z,995.5
2018-08-23T18:42:01.051Z,932.6
2018-08-23T18:43:01.050Z,864.1
2018-08-23T18:44:01.079Z,802.7
2018-08-23T18:45:01.081Z,766.0
2018-08-23T18:46:01.223Z,743.7
2018-08-23T18:47:01.079Z,729.2
2018-08-23T18:48:01.104Z,710.7
2018-08-23T18:49:01.080Z,678.4
2018-08-23T18:50:01.091Z,631.0
2018-08-23T18:51:01.282Z,584.3
2018-08-23T18:52:01.148Z,549.7
2018-08-23T18:53:01.108Z,525.9
2018-08-23T18:54:01.091Z,507.9
2018-08-23T18:55:01.086Z,490.2
2018-08-23T18:56:01.277Z,465.4
2018-08-23T18:57:01.081Z,430.1
2018-08-23T18:58:01.081Z,392.2
2018-08-23T18:59:01.082Z,358.3
2018-08-23T19:00:01.263Z,328.9
2018-08-23T19:01:01.296Z,299.9
2018-08-23T19:02:01.124Z,268.7
2018-08-23T19:03:01.086Z,236.7
2018-08-23T19:04:01.119Z,206.5
2018-08-23T19:05:01.156Z,179.1
2018-08-23T19:06:01.259Z,154.3
2018-08-23T19:07:01.056Z,131.9
2018-08-23T19:08:01.234Z,112.1
2018-08-23T19:09:01.091Z,94.5
2018-08-23T19:10:01.109Z,79.3
2018-08-23T19:11:01.295Z,66.3
2018-08-23T19:12:01.059Z,55.2
2018-08-23T19:13:06.124Z,45.7
2018-08-23T19:14:01.061Z,37.8
2018-08-23T19:15:01.090Z,31.2
2018-08-23T19:16:01.357Z,25.6
2018-08-23T19:17:01.092Z,21.0
2018-08-23T19:18:06.059Z,17.2
2018-08-23T19:19:01.133Z,14.1
2018-08-23T19:20:01.060Z,11.5
2018-08-23T19:21:01.245Z,9.5
2018-08-23T19:22:01.056Z,8.0
2018-08-23T19:23:01.116Z,6.8
2018-08-23T19:24:01.159Z,5.9
2018-08-23T19:25:01.150Z,5.3
2018-08-23T19:26:01.250Z,4.7
2018-08-23T19:27:01.067Z,4.1
2018-08-23T19:28:06.090Z,3.7
2018-08-23T19:29:01.162Z,3.4
2018-08-23T19:30:01.092Z,3.1
2018-08-23T19:31:01.293Z,2.9
2018-08-23T19:32:01.063Z,2.7
2018-08-23T19:33:06.097Z,2.5
2018-08-23T19:34:01.066Z,2.3
2018-08-23T19:35:01.062Z,2.1
2018-08-23T19:36:01.362Z,1.9
2018-08-23T19:37:01.132Z,1.7
2018-08-23T19:38:01.126Z,1.5
2018-08-23T19:39:01.063Z,1.3
2018-08-23T19:40:01.093Z,1.1
2018-08-23T19:42:01.304Z,0.9
2018-08-23T19:43:01.048Z,0.8
2018-08-23T19:44:01.108Z,0.7
2018-08-23T19:45:01.049Z,0.5
2018-08-23T19:47:01.281Z,0.4
2018-08-23T19:48:01.072Z,0.3
2018-08-23T19:50:01.143Z,0.2
2018-08-23T19:51:01.080Z,0.1
